Time;durP1;ratioP1;P1;durP2;ratioP2;P2;SDS_P1;SDS_P2;PMS_P1;PMS_P2;Temp;Humidity;BMP_temperature;BMP_pressure;BME280_temperature;BME280_humidity;BME280_pressure;Samples;Min_cycle;Max_cycle;Signal;HPM_P1;HPM_P2
2022/06/25 00:00:34;;;;;;;11.35;1.60;;;14.70;99.90;;;;;;4984285;28;20065;-82
2022/06/25 00:02:59;;;;;;;7.88;2.00;;;14.70;99.90;;;;;;4990085;28;20060;-81
2022/06/25 00:05:28;;;;;;;7.70;1.25;;;14.70;99.90;;;;;;4990965;28;20062;-80
2022/06/25 00:07:58;;;;;;;8.60;1.30;;;14.60;99.90;;;;;;4990529;28;20099;-79
2022/06/25 00:10:25;;;;;;;7.47;1.70;;;14.70;99.90;;;;;;4984499;28;20018;-79
2022/06/25 00:12:51;;;;;;;9.85;1.13;;;14.70;99.90;;;;;;4991225;28;20030;-79
2022/06/25 00:15:17;;;;;;;7.93;1.45;;;14.70;99.90;;;;;;4990862;28;20023;-78
2022/06/25 00:17:43;;;;;;;5.05;1.85;;;14.60;99.90;;;;;;4991394;28;20101;-81
2022/06/25 00:20:10;;;;;;;8.05;1.52;;;14.60;99.90;;;;;;4991363;28;20054;-81
2022/06/25 00:22:36;;;;;;;7.57;1.50;;;14.50;99.90;;;;;;5013226;23;20006;-78
2022/06/25 00:25:02;;;;;;;6.38;1.02;;;14.50;99.90;;;;;;5010627;28;20040;-78
2022/06/25 00:27:28;;;;;;;8.00;1.90;;;14.40;99.90;;;;;;4993346;28;20037;-78
2022/06/25 00:29:54;;;;;;;5.18;1.13;;;14.30;99.90;;;;;;5009660;28;20030;-78
2022/06/25 00:32:20;;;;;;;9.77;1.20;;;14.30;99.90;;;;;;5011277;28;20072;-78
2022/06/25 00:34:46;;;;;;;5.78;1.17;;;14.30;99.90;;;;;;5010953;28;20036;-78
2022/06/25 00:37:12;;;;;;;5.38;1.10;;;14.40;99.90;;;;;;5010690;28;20375;-78
2022/06/25 00:39:38;;;;;;;8.35;1.50;;;14.50;99.90;;;;;;5010625;28;20025;-78
2022/06/25 00:42:12;;;;;;;7.28;1.55;;;14.50;99.90;;;;;;5010641;28;20057;-78
2022/06/25 00:44:38;;;;;;;7.30;1.30;;;14.50;99.90;;;;;;5010198;28;20029;-77
2022/06/25 00:47:07;;;;;;;9.65;1.80;;;14.50;99.90;;;;;;5010517;28;20029;-79
2022/06/25 00:49:33;;;;;;;10.43;2.72;;;14.50;99.90;;;;;;4992979;28;20028;-78
2022/06/25 00:52:03;;;;;;;7.50;1.45;;;14.50;99.90;;;;;;5010467;28;20026;-76
2022/06/25 00:54:35;;;;;;;6.40;1.60;;;14.50;99.90;;;;;;5010444;28;20050;-77
2022/06/25 00:57:02;;;;;;;10.65;1.67;;;14.50;99.90;;;;;;5010593;28;20018;-77
2022/06/25 00:59:29;;;;;;;9.13;1.77;;;14.50;99.90;;;;;;5009645;28;20374;-78
2022/06/25 01:01:55;;;;;;;8.63;1.67;;;14.50;99.90;;;;;;5010213;28;20030;-78
2022/06/25 01:04:21;;;;;;;11.35;1.45;;;14.40;99.90;;;;;;5010119;28;20105;-77
2022/06/25 01:06:47;;;;;;;9.18;1.02;;;14.40;99.90;;;;;;5010680;28;20049;-78
2022/06/25 01:09:13;;;;;;;7.70;1.50;;;14.50;99.90;;;;;;5010253;28;20029;-78
2022/06/25 01:11:39;;;;;;;11.73;2.78;;;14.40;99.90;;;;;;5009786;28;20372;-78
2022/06/25 01:14:09;;;;;;;10.10;1.15;;;14.40;99.90;;;;;;5009865;28;20490;-78
2022/06/25 01:16:35;;;;;;;2.47;0.70;;;14.30;99.90;;;;;;5010175;28;20462;-78
2022/06/25 01:19:10;;;;;;;5.90;1.33;;;14.20;99.90;;;;;;5010082;28;20021;-78
2022/06/25 01:21:36;;;;;;;4.82;1.30;;;14.20;99.90;;;;;;5010046;28;20025;-78
2022/06/25 01:24:03;;;;;;;9.50;1.58;;;14.20;99.90;;;;;;5013352;23;20456;-80
2022/06/25 01:26:31;;;;;;;3.67;1.05;;;14.20;99.90;;;;;;4990320;28;20061;-80
2022/06/25 01:28:57;;;;;;;9.43;1.65;;;14.20;99.90;;;;;;4992199;28;20018;-81
2022/06/25 01:31:23;;;;;;;8.63;1.15;;;14.20;99.90;;;;;;4990993;28;20023;-79
2022/06/25 01:33:49;;;;;;;11.25;1.75;;;14.20;99.90;;;;;;4990718;28;20023;-80
2022/06/25 01:36:15;;;;;;;7.75;1.55;;;14.20;99.90;;;;;;4990276;28;20037;-80
2022/06/25 01:38:40;;;;;;;10.27;1.50;;;14.10;99.90;;;;;;4990052;28;20064;-80
2022/06/25 01:41:06;;;;;;;8.48;1.48;;;14.10;99.90;;;;;;4990063;28;20096;-81
2022/06/25 01:43:32;;;;;;;4.80;1.30;;;14.00;99.90;;;;;;4990134;28;20023;-80
2022/06/25 01:45:58;;;;;;;7.75;1.13;;;14.00;99.90;;;;;;4990484;28;20158;-80
2022/06/25 01:48:23;;;;;;;7.10;1.25;;;14.00;99.90;;;;;;4972934;28;20387;-80
2022/06/25 01:50:49;;;;;;;5.88;1.30;;;14.10;99.90;;;;;;4990294;28;20464;-80
2022/06/25 01:53:15;;;;;;;8.05;1.40;;;14.00;99.90;;;;;;4989997;28;20033;-81
2022/06/25 01:55:41;;;;;;;5.70;1.30;;;13.90;99.90;;;;;;4990028;28;20034;-80
2022/06/25 01:58:06;;;;;;;5.97;1.20;;;13.90;99.90;;;;;;4989895;28;20033;-80
2022/06/25 02:00:32;;;;;;;6.78;1.25;;;13.90;99.90;;;;;;4992346;28;20041;-80
2022/06/25 02:02:59;;;;;;;11.45;1.27;;;13.90;99.90;;;;;;4990435;28;20027;-80
2022/06/25 02:08:14;;;;;;;13.60;1.77;;;13.90;99.90;;;;;;4989545;28;20097;-80
2022/06/25 02:10:41;;;;;;;9.77;1.40;;;13.90;99.90;;;;;;4990208;28;20113;-81
2022/06/25 02:13:07;;;;;;;9.35;1.70;;;13.90;99.90;;;;;;4990325;28;20029;-80
2022/06/25 02:15:33;;;;;;;9.73;1.15;;;14.00;99.90;;;;;;4989919;28;20030;-80
2022/06/25 02:17:59;;;;;;;9.98;1.42;;;14.00;99.90;;;;;;4990116;28;20102;-80
2022/06/25 02:20:25;;;;;;;7.60;1.20;;;14.00;99.90;;;;;;4990111;28;20072;-81
2022/06/25 02:22:51;;;;;;;10.80;1.73;;;14.10;99.90;;;;;;5009160;23;20057;-79
2022/06/25 02:25:17;;;;;;;13.18;1.85;;;14.10;99.90;;;;;;4975862;28;20047;-78
2022/06/25 02:27:43;;;;;;;11.02;1.50;;;14.10;99.90;;;;;;4989933;28;20769;-79
2022/06/25 02:30:09;;;;;;;10.13;1.33;;;14.00;99.90;;;;;;4991794;28;20475;-78
2022/06/25 02:32:35;;;;;;;11.68;1.20;;;14.00;99.90;;;;;;4989962;28;20065;-78
2022/06/25 02:35:01;;;;;;;10.65;1.20;;;13.90;99.90;;;;;;4988932;28;20117;-78
2022/06/25 02:37:27;;;;;;;5.95;1.30;;;13.90;99.90;;;;;;4989334;28;20493;-78
2022/06/25 02:39:53;;;;;;;12.88;1.52;;;13.90;99.90;;;;;;4987966;28;20700;-79
2022/06/25 02:42:19;;;;;;;6.25;1.30;;;13.90;99.90;;;;;;4988523;28;20061;-79
2022/06/25 02:44:44;;;;;;;9.70;2.22;;;14.00;99.90;;;;;;4989209;28;20506;-79
2022/06/25 02:47:10;;;;;;;4.47;1.15;;;13.90;99.90;;;;;;4989253;28;20550;-78
2022/06/25 02:49:36;;;;;;;5.38;1.33;;;13.90;99.90;;;;;;4989557;28;20594;-78
2022/06/25 02:52:03;;;;;;;4.80;1.15;;;14.00;99.90;;;;;;4990359;28;20034;-78
2022/06/25 02:54:29;;;;;;;6.85;1.00;;;13.90;99.90;;;;;;4992943;28;20354;-79
2022/06/25 02:59:42;;;;;;;3.53;0.95;;;13.90;99.90;;;;;;4990531;28;20423;-79
2022/06/25 03:02:08;;;;;;;6.57;1.35;;;14.00;99.90;;;;;;4992679;28;20022;-78
2022/06/25 03:04:35;;;;;;;7.93;1.23;;;14.00;99.90;;;;;;4992960;28;20038;-79
2022/06/25 03:07:01;;;;;;;6.70;1.45;;;14.00;99.90;;;;;;4992633;28;20451;-78
2022/06/25 03:09:27;;;;;;;7.03;1.25;;;14.00;99.90;;;;;;4992618;28;20098;-79
2022/06/25 03:11:53;;;;;;;12.55;1.27;;;14.00;99.90;;;;;;4992765;28;20018;-78
2022/06/25 03:14:18;;;;;;;7.45;1.75;;;13.90;99.90;;;;;;4992388;28;20029;-78
2022/06/25 03:16:44;;;;;;;5.57;2.17;;;13.90;99.90;;;;;;4992714;28;20022;-78
2022/06/25 03:19:10;;;;;;;2.25;0.93;;;13.90;99.90;;;;;;4992358;28;20028;-79
2022/06/25 03:21:37;;;;;;;11.77;1.13;;;13.90;99.90;;;;;;4992155;28;20030;-78
2022/06/25 03:24:03;;;;;;;5.20;1.17;;;13.90;99.90;;;;;;5002681;22;20079;-80
2022/06/25 03:26:29;;;;;;;7.50;1.58;;;13.80;99.90;;;;;;4973759;28;20034;-80
2022/06/25 03:28:56;;;;;;;7.07;1.52;;;13.80;99.90;;;;;;4973253;28;20023;-80
2022/06/25 03:31:21;;;;;;;7.72;0.93;;;13.70;99.90;;;;;;4973822;28;20051;-80
2022/06/25 03:33:48;;;;;;;7.13;2.10;;;13.70;99.90;;;;;;4973945;28;20069;-80
2022/06/25 03:36:14;;;;;;;6.93;1.30;;;13.80;99.90;;;;;;4973749;28;20082;-79
2022/06/25 03:38:39;;;;;;;8.20;2.75;;;13.80;99.90;;;;;;4973499;28;20023;-80
2022/06/25 03:43:49;;;;;;;8.05;1.55;;;13.80;99.90;;;;;;4973840;28;20502;-80
2022/06/25 03:46:16;;;;;;;5.85;1.58;;;13.90;99.90;;;;;;4973677;28;20058;-79
2022/06/25 03:48:41;;;;;;;9.45;1.33;;;13.90;99.90;;;;;;4973455;28;20019;-79
2022/06/25 03:51:07;;;;;;;8.13;1.48;;;14.00;99.90;;;;;;4973644;28;20031;-80
2022/06/25 03:53:33;;;;;;;4.78;1.35;;;14.00;99.90;;;;;;4973528;28;20026;-80
2022/06/25 03:55:59;;;;;;;3.70;0.90;;;13.90;99.90;;;;;;4973178;28;20472;-80
2022/06/25 03:58:25;;;;;;;12.48;1.55;;;13.90;99.90;;;;;;4973055;28;20023;-77
2022/06/25 04:00:50;;;;;;;3.97;1.15;;;13.80;99.90;;;;;;4972953;28;20494;-77
2022/06/25 04:03:16;;;;;;;10.65;1.50;;;13.90;99.90;;;;;;4973232;28;20029;-77
2022/06/25 04:05:42;;;;;;;7.93;1.13;;;13.90;99.90;;;;;;4973472;28;20119;-79
2022/06/25 04:08:08;;;;;;;7.68;1.10;;;13.90;99.90;;;;;;4972984;28;20034;-78
2022/06/25 04:10:34;;;;;;;8.43;1.45;;;14.00;99.90;;;;;;4973215;28;20034;-79
2022/06/25 04:13:00;;;;;;;11.20;1.00;;;14.00;99.90;;;;;;4979968;28;20419;-80
2022/06/25 04:15:25;;;;;;;10.05;1.88;;;14.00;99.90;;;;;;4973259;28;20027;-80
2022/06/25 04:17:51;;;;;;;10.82;1.60;;;14.00;99.90;;;;;;4972707;28;20030;-79
2022/06/25 04:20:17;;;;;;;5.40;1.10;;;14.00;99.90;;;;;;4972946;28;20030;-79
2022/06/25 04:22:43;;;;;;;8.57;1.63;;;14.00;99.90;;;;;;4990196;23;20042;-78
2022/06/25 04:25:09;;;;;;;5.30;1.00;;;14.10;99.90;;;;;;4987130;28;20053;-78
2022/06/25 04:30:19;;;;;;;8.65;1.35;;;14.10;99.90;;;;;;4999209;28;20029;-78
2022/06/25 04:32:44;;;;;;;8.45;0.80;;;14.20;99.90;;;;;;4992273;28;20026;-79
2022/06/25 04:35:10;;;;;;;7.57;1.40;;;14.20;99.90;;;;;;4992215;28;20497;-78
2022/06/25 04:37:36;;;;;;;6.75;1.35;;;14.20;99.90;;;;;;4974548;28;20018;-78
2022/06/25 04:40:02;;;;;;;12.60;1.60;;;14.20;99.90;;;;;;4991525;28;20030;-77
2022/06/25 04:42:28;;;;;;;13.40;1.55;;;14.30;99.90;;;;;;4991462;28;20383;-78
2022/06/25 04:44:53;;;;;;;8.05;1.15;;;14.20;99.90;;;;;;4991676;28;20014;-78
2022/06/25 04:47:19;;;;;;;8.73;1.33;;;14.10;99.90;;;;;;4991684;28;20127;-79
2022/06/25 04:49:45;;;;;;;6.28;1.17;;;14.10;99.90;;;;;;4992020;28;20018;-79
2022/06/25 04:52:11;;;;;;;11.68;1.38;;;14.10;99.90;;;;;;4991796;28;20033;-77
2022/06/25 04:54:36;;;;;;;5.78;1.10;;;14.10;99.90;;;;;;4991530;28;20022;-79
2022/06/25 04:57:02;;;;;;;5.70;1.35;;;14.10;99.90;;;;;;4991835;28;20061;-78
2022/06/25 04:59:28;;;;;;;9.00;1.33;;;14.10;99.90;;;;;;4991788;28;20018;-79
2022/06/25 05:01:54;;;;;;;7.70;1.00;;;14.20;99.90;;;;;;4991736;28;20034;-78
2022/06/25 05:04:20;;;;;;;8.65;1.50;;;14.20;99.90;;;;;;4991729;28;20030;-79
2022/06/25 05:06:46;;;;;;;5.68;1.55;;;14.30;99.90;;;;;;4991643;28;20022;-78
2022/06/25 05:09:12;;;;;;;9.65;1.45;;;14.30;99.90;;;;;;4973976;28;20022;-79
2022/06/25 05:11:37;;;;;;;7.10;1.20;;;14.30;99.90;;;;;;4991687;28;20026;-79
2022/06/25 05:14:04;;;;;;;7.28;1.50;;;14.40;99.90;;;;;;4991074;28;20475;-77
2022/06/25 05:16:29;;;;;;;6.63;0.98;;;14.50;99.90;;;;;;4990901;28;20057;-77
2022/06/25 05:18:55;;;;;;;6.55;1.73;;;14.60;99.90;;;;;;4991528;28;20054;-78
2022/06/25 05:21:21;;;;;;;8.20;1.83;;;14.60;99.90;;;;;;4991356;28;20117;-77
2022/06/25 05:23:47;;;;;;;6.97;1.20;;;14.70;99.90;;;;;;5002846;22;20054;-79
2022/06/25 05:26:13;;;;;;;5.70;1.00;;;14.70;99.90;;;;;;4971238;28;20037;-79
2022/06/25 05:28:39;;;;;;;3.15;0.85;;;14.80;99.90;;;;;;4971275;28;20019;-79
2022/06/25 05:31:05;;;;;;;2.05;0.85;;;14.90;99.90;;;;;;4971905;28;20102;-78
2022/06/25 05:33:30;;;;;;;4.55;1.38;;;15.00;99.90;;;;;;4971253;28;20019;-79
2022/06/25 05:35:56;;;;;;;9.02;1.33;;;15.00;99.90;;;;;;4971306;28;20468;-79
2022/06/25 05:38:22;;;;;;;4.75;1.38;;;15.10;99.90;;;;;;4971253;28;20026;-79
2022/06/25 05:40:48;;;;;;;7.45;1.73;;;15.10;99.90;;;;;;4971165;28;20121;-79
2022/06/25 05:43:13;;;;;;;9.95;1.30;;;15.20;99.90;;;;;;4971399;28;20102;-79
2022/06/25 05:45:39;;;;;;;5.63;1.00;;;15.30;99.90;;;;;;4971766;28;20062;-79
2022/06/25 05:48:05;;;;;;;7.80;1.23;;;15.40;99.90;;;;;;4971401;28;20117;-79
2022/06/25 05:50:31;;;;;;;10.95;1.27;;;15.60;99.90;;;;;;4971537;28;20058;-80
2022/06/25 05:52:57;;;;;;;6.85;1.10;;;15.70;99.90;;;;;;4971041;28;20380;-79
2022/06/25 05:55:24;;;;;;;10.45;1.52;;;15.60;99.90;;;;;;4970854;28;20084;-79
2022/06/25 05:57:51;;;;;;;4.18;1.13;;;15.60;99.90;;;;;;4971420;28;20101;-79
2022/06/25 06:00:17;;;;;;;4.97;1.05;;;15.70;99.90;;;;;;4971236;28;20031;-79
2022/06/25 06:02:43;;;;;;;5.57;1.30;;;15.60;99.90;;;;;;4971332;28;20773;-78
2022/06/25 06:05:09;;;;;;;13.52;1.58;;;15.60;99.90;;;;;;4971664;28;20061;-79
2022/06/25 06:07:35;;;;;;;8.10;1.65;;;15.70;99.90;;;;;;4964228;28;20030;-77
2022/06/25 06:10:01;;;;;;;11.07;1.00;;;15.60;99.90;;;;;;4970889;28;20361;-78
2022/06/25 06:12:27;;;;;;;6.75;1.30;;;15.50;99.90;;;;;;4971295;28;20038;-79
2022/06/25 06:14:53;;;;;;;9.77;1.33;;;15.50;99.90;;;;;;4971614;28;20034;-78
2022/06/25 06:17:18;;;;;;;6.00;0.95;;;15.60;99.90;;;;;;4971012;28;20031;-78
2022/06/25 06:19:44;;;;;;;5.18;1.15;;;15.80;99.90;;;;;;4971121;28;20046;-78
2022/06/25 06:22:10;;;;;;;8.82;1.83;;;15.90;99.90;;;;;;4971233;28;20038;-79
2022/06/25 06:24:35;;;;;;;5.70;1.00;;;15.90;99.90;;;;;;4971682;28;20114;-79
2022/06/25 06:27:01;;;;;;;12.55;2.10;;;15.90;99.90;;;;;;4971604;28;20026;-79
2022/06/25 06:29:29;;;;;;;10.77;1.88;;;16.00;99.90;;;;;;4974677;28;20538;-79
2022/06/25 06:31:54;;;;;;;6.78;1.67;;;16.10;99.90;;;;;;4974934;28;20031;-79
2022/06/25 06:34:20;;;;;;;5.70;1.20;;;16.10;99.90;;;;;;4975046;28;20077;-79
2022/06/25 06:36:46;;;;;;;6.10;1.58;;;16.30;99.90;;;;;;4974526;28;20105;-79
2022/06/25 06:39:12;;;;;;;12.13;1.50;;;16.40;99.90;;;;;;4974487;28;20025;-79
2022/06/25 06:41:38;;;;;;;11.35;1.10;;;16.30;99.90;;;;;;4974675;28;20038;-79
2022/06/25 06:44:04;;;;;;;7.22;1.48;;;16.20;99.90;;;;;;4974773;28;20109;-79
2022/06/25 06:46:29;;;;;;;5.53;1.10;;;16.10;99.90;;;;;;4974626;28;20380;-79
2022/06/25 06:48:55;;;;;;;11.18;1.15;;;16.20;99.90;;;;;;4974118;28;20077;-78
2022/06/25 06:51:21;;;;;;;11.05;1.55;;;16.40;99.90;;;;;;4973983;28;20042;-79
2022/06/25 06:53:47;;;;;;;10.93;1.50;;;16.50;99.90;;;;;;4974369;28;20031;-79
2022/06/25 06:56:13;;;;;;;3.45;0.80;;;16.70;99.90;;;;;;4974371;28;20480;-79
2022/06/25 06:58:38;;;;;;;3.08;1.00;;;16.90;99.90;;;;;;4974120;28;20019;-79
2022/06/25 07:01:04;;;;;;;3.58;1.08;;;17.20;99.90;;;;;;4974442;28;20039;-78
2022/06/25 07:03:30;;;;;;;4.57;1.13;;;17.40;99.90;;;;;;4974442;28;20102;-78
2022/06/25 07:05:56;;;;;;;3.95;0.77;;;17.60;99.90;;;;;;4974180;28;20042;-78
2022/06/25 07:08:22;;;;;;;7.90;1.63;;;17.80;99.90;;;;;;4974332;28;20019;-78
2022/06/25 07:10:48;;;;;;;9.02;1.20;;;18.20;99.90;;;;;;4973866;28;20089;-78
2022/06/25 07:13:14;;;;;;;2.72;0.82;;;18.40;99.90;;;;;;4973891;28;20026;-78
2022/06/25 07:15:40;;;;;;;10.20;1.75;;;18.60;99.90;;;;;;4972680;28;20019;-78
2022/06/25 07:18:06;;;;;;;5.63;1.40;;;18.40;99.90;;;;;;4972058;28;20372;-78
2022/06/25 07:20:32;;;;;;;5.30;0.80;;;18.40;99.90;;;;;;4971907;28;20131;-79
2022/06/25 07:22:58;;;;;;;6.55;1.23;;;18.80;99.90;;;;;;4972742;28;20467;-78
2022/06/25 07:25:24;;;;;;;3.95;0.90;;;18.80;99.90;;;;;;4971961;28;20428;-78
2022/06/25 07:27:49;;;;;;;9.90;1.23;;;18.60;99.90;;;;;;4972339;28;20114;-79
2022/06/25 07:30:15;;;;;;;6.30;0.95;;;18.60;99.90;;;;;;4972333;28;20027;-79
2022/06/25 07:32:41;;;;;;;6.15;0.98;;;18.70;99.90;;;;;;4972160;28;20026;-79
2022/06/25 07:35:08;;;;;;;5.70;1.13;;;18.60;99.90;;;;;;4974006;28;20142;-79
2022/06/25 07:37:34;;;;;;;7.40;1.17;;;18.60;99.90;;;;;;4973315;28;20019;-79
2022/06/25 07:40:00;;;;;;;5.32;1.17;;;18.70;99.90;;;;;;4973375;28;20033;-78
2022/06/25 07:42:26;;;;;;;5.68;0.90;;;18.60;99.90;;;;;;4973385;28;20027;-78
2022/06/25 07:44:52;;;;;;;6.63;0.98;;;18.60;99.90;;;;;;4973169;28;20035;-77
2022/06/25 07:47:18;;;;;;;7.13;0.95;;;18.50;99.90;;;;;;4973002;28;20102;-78
2022/06/25 07:52:29;;;;;;;2.60;0.82;;;18.30;99.90;;;;;;4973656;28;20118;-78
2022/06/25 07:54:54;;;;;;;8.50;1.20;;;18.10;99.90;;;;;;4973403;28;20101;-79
2022/06/25 07:57:20;;;;;;;2.00;0.55;;;18.00;99.90;;;;;;4973368;28;20185;-78
2022/06/25 07:59:46;;;;;;;3.08;0.73;;;18.10;99.90;;;;;;4973097;28;20047;-78
2022/06/25 08:02:12;;;;;;;3.80;0.95;;;18.20;99.90;;;;;;4972530;28;20090;-78
2022/06/25 08:04:37;;;;;;;4.57;0.90;;;18.60;99.90;;;;;;4968767;28;20460;-78
2022/06/25 08:07:03;;;;;;;5.18;1.02;;;18.90;99.90;;;;;;4972560;28;20408;-77
2022/06/25 08:09:29;;;;;;;6.80;1.20;;;19.10;99.40;;;;;;4972792;28;20435;-78
2022/06/25 08:11:55;;;;;;;5.65;1.15;;;19.10;99.90;;;;;;4970254;28;20062;-78
2022/06/25 08:14:21;;;;;;;3.17;0.80;;;19.20;99.00;;;;;;4971954;28;20062;-79
2022/06/25 08:16:47;;;;;;;4.95;1.27;;;19.20;99.40;;;;;;4970430;28;20106;-78
2022/06/25 08:19:13;;;;;;;6.00;0.75;;;19.40;99.60;;;;;;4971341;28;20090;-79
2022/06/25 08:21:38;;;;;;;10.70;1.30;;;19.50;99.90;;;;;;4972658;28;20038;-79
2022/06/25 08:24:05;;;;;;;6.70;1.02;;;19.50;99.90;;;;;;4971732;28;20447;-79
2022/06/25 08:26:30;;;;;;;4.72;1.08;;;19.70;97.60;;;;;;4970648;28;20747;-80
2022/06/25 08:28:56;;;;;;;7.03;1.00;;;19.80;99.90;;;;;;4972881;28;20023;-79
2022/06/25 08:31:23;;;;;;;5.22;1.10;;;20.00;99.90;;;;;;4954837;28;20050;-79
2022/06/25 08:33:49;;;;;;;5.50;0.90;;;20.10;97.80;;;;;;4972261;28;20073;-77
2022/06/25 08:36:15;;;;;;;3.85;0.93;;;20.10;96.00;;;;;;4971786;28;20405;-80
2022/06/25 08:38:41;;;;;;;3.83;0.80;;;19.60;95.40;;;;;;4954439;28;20027;-79
2022/06/25 08:41:08;;;;;;;4.45;1.20;;;19.30;96.20;;;;;;4972359;28;20031;-79
2022/06/25 08:43:33;;;;;;;2.42;0.63;;;19.30;97.10;;;;;;4972619;28;20114;-79
2022/06/25 08:45:59;;;;;;;5.70;1.02;;;19.80;94.30;;;;;;4972412;28;20040;-80
2022/06/25 08:48:31;;;;;;;6.75;1.63;;;20.00;94.00;;;;;;4972137;28;20440;-80
2022/06/25 08:50:59;;;;;;;3.22;0.95;;;20.30;91.30;;;;;;4971728;28;20030;-79
2022/06/25 08:53:30;;;;;;;5.93;1.30;;;20.50;90.70;;;;;;4972778;28;20027;-79
2022/06/25 08:55:56;;;;;;;6.05;1.02;;;20.90;92.40;;;;;;4972239;28;20488;-80
2022/06/25 08:58:22;;;;;;;3.85;0.60;;;21.10;90.30;;;;;;4958686;28;20065;-80
2022/06/25 09:00:48;;;;;;;6.78;1.00;;;21.70;83.60;;;;;;4970255;28;20114;-80
2022/06/25 09:03:14;;;;;;;8.43;0.88;;;22.70;81.50;;;;;;4972015;28;20109;-79
2022/06/25 09:05:42;;;;;;;6.32;0.63;;;22.70;75.40;;;;;;4972423;28;20592;-79
2022/06/25 09:08:10;;;;;;;5.32;0.90;;;22.70;71.20;;;;;;4972140;28;20038;-79
2022/06/25 09:10:37;;;;;;;5.95;0.70;;;23.10;77.10;;;;;;4972098;28;20029;-78
2022/06/25 09:13:06;;;;;;;3.28;0.63;;;23.10;67.80;;;;;;4972174;28;20027;-78
2022/06/25 09:15:34;;;;;;;2.72;0.80;;;22.80;68.10;;;;;;4972197;28;20021;-79
2022/06/25 09:18:10;;;;;;;2.97;0.60;;;22.80;69.10;;;;;;4971489;28;20027;-79
2022/06/25 09:20:54;;;;;;;5.35;1.02;;;23.00;68.80;;;;;;4971503;28;20054;-79
2022/06/25 09:23:20;;;;;;;1.90;0.82;;;22.10;69.60;;;;;;4979458;28;20030;-79
2022/06/25 09:25:45;;;;;;;4.88;1.13;;;22.30;73.60;;;;;;4971868;28;20057;-80
2022/06/25 09:28:30;;;;;;;2.10;0.68;;;22.50;72.10;;;;;;4971955;28;20023;-81
2022/06/25 09:30:56;;;;;;;5.13;0.90;;;22.00;70.60;;;;;;4971599;28;20081;-79
2022/06/25 09:33:22;;;;;;;5.43;0.90;;;21.90;72.10;;;;;;4971379;28;20030;-78
2022/06/25 09:35:51;;;;;;;8.90;1.60;;;22.00;73.00;;;;;;4971380;28;20019;-79
2022/06/25 09:38:17;;;;;;;6.22;1.23;;;22.00;74.20;;;;;;4954410;28;20018;-79
2022/06/25 09:41:01;;;;;;;4.82;1.00;;;22.30;75.40;;;;;;4971800;28;20460;-79
2022/06/25 09:43:37;;;;;;;2.40;0.82;;;22.20;70.30;;;;;;4971731;28;20026;-79
2022/06/25 09:46:05;;;;;;;6.22;1.17;;;22.30;71.00;;;;;;4971326;28;20030;-79
2022/06/25 09:48:33;;;;;;;4.78;0.73;;;23.10;69.70;;;;;;4971128;28;20507;-80
2022/06/25 09:51:10;;;;;;;3.28;0.82;;;23.50;65.70;;;;;;4971572;28;20011;-79
2022/06/25 09:53:48;;;;;;;2.25;0.47;;;23.80;65.40;;;;;;4971820;28;20027;-80
2022/06/25 09:56:21;;;;;;;6.80;1.70;;;23.20;64.70;;;;;;4971723;28;20102;-79
2022/06/25 09:58:48;;;;;;;4.32;1.15;;;23.10;67.40;;;;;;4971440;28;20029;-80
2022/06/25 10:01:20;;;;;;;6.72;1.05;;;23.00;67.60;;;;;;4972827;28;20027;-79
2022/06/25 10:03:47;;;;;;;4.22;0.60;;;23.10;68.00;;;;;;4974204;28;20023;-79
2022/06/25 10:06:15;;;;;;;8.13;1.30;;;23.00;66.90;;;;;;4958153;28;20042;-79
2022/06/25 10:08:50;;;;;;;3.33;0.85;;;22.90;67.70;;;;;;4975454;28;20027;-79
2022/06/25 10:11:22;;;;;;;6.90;1.17;;;22.30;69.70;;;;;;4975093;28;20027;-79
2022/06/25 10:13:48;;;;;;;2.08;1.13;;;22.10;72.90;;;;;;4981802;28;20496;-79
2022/06/25 10:16:25;;;;;;;5.22;0.85;;;22.50;74.50;;;;;;4974761;28;20057;-79
2022/06/25 10:18:53;;;;;;;6.43;0.60;;;22.90;68.90;;;;;;4975119;28;20023;-79
2022/06/25 10:21:21;;;;;;;2.75;0.50;;;24.00;67.50;;;;;;4974930;28;20034;-78
2022/06/25 10:23:57;;;;;;;3.30;1.00;;;24.40;66.60;;;;;;4982195;28;20034;-80
2022/06/25 10:26:24;;;;;;;9.57;0.80;;;24.00;63.00;;;;;;4975294;28;20026;-80
2022/06/25 10:28:50;;;;;;;2.25;0.50;;;23.20;64.40;;;;;;4975250;28;20027;-80
2022/06/25 10:31:18;;;;;;;3.80;0.63;;;22.40;67.00;;;;;;4975307;28;20027;-79
2022/06/25 10:34:02;;;;;;;1.85;0.50;;;22.00;72.10;;;;;;4975008;28;20023;-80
2022/06/25 10:36:49;;;;;;;2.63;0.82;;;22.00;74.70;;;;;;4957745;28;20030;-80
2022/06/25 10:39:27;;;;;;;4.20;0.50;;;21.60;79.40;;;;;;4968360;28;20023;-79
2022/06/25 10:45:04;;;;;;;4.47;1.00;;;22.00;79.70;;;;;;4970107;28;20502;-79
2022/06/25 10:47:57;;;;;;;2.97;0.60;;;22.00;77.70;;;;;;4972831;28;20534;-80
2022/06/25 10:50:23;;;;;;;3.58;0.60;;;22.20;77.20;;;;;;4971660;28;20035;-79
2022/06/25 10:53:07;;;;;;;3.80;0.73;;;22.40;78.10;;;;;;4973954;28;20403;-79
2022/06/25 10:55:48;;;;;;;6.13;0.88;;;22.90;72.60;;;;;;4970676;28;20408;-79
2022/06/25 10:58:14;;;;;;;;;;;22.80;75.60;;;;;;4973025;28;20106;-80
2022/06/25 11:01:03;;;;;;;7.53;0.93;;;22.90;76.00;;;;;;4973589;28;20008;-80
2022/06/25 11:03:30;;;;;;;5.80;0.90;;;23.00;73.80;;;;;;4973888;28;20118;-79
2022/06/25 11:06:16;;;;;;;4.75;0.90;;;23.10;72.50;;;;;;4973775;28;20033;-79
2022/06/25 11:08:42;;;;;;;8.73;1.45;;;22.80;74.80;;;;;;4970323;28;20493;-79
2022/06/25 11:11:08;;;;;;;4.22;0.60;;;22.70;75.70;;;;;;4974085;28;20038;-80
2022/06/25 11:13:34;;;;;;;3.22;0.80;;;23.10;74.30;;;;;;4973118;28;20105;-78
2022/06/25 11:16:11;;;;;;;2.67;0.50;;;23.90;70.30;;;;;;4956119;28;20023;-80
2022/06/25 11:18:49;;;;;;;2.60;0.70;;;23.90;67.70;;;;;;4971253;28;20472;-80
2022/06/25 11:21:38;;;;;;;6.80;0.98;;;23.90;70.70;;;;;;4973551;28;20033;-80
2022/06/25 11:24:25;;;;;;;4.82;0.93;;;23.50;66.30;;;;;;4955400;28;20042;-81
2022/06/25 11:29:52;;;;;;;3.88;0.80;;;22.70;70.60;;;;;;4972284;28;20427;-80
2022/06/25 11:32:26;;;;;;;3.13;0.55;;;22.60;75.60;;;;;;4974281;28;20018;-82
2022/06/25 11:35:00;;;;;;;3.92;0.65;;;22.60;75.60;;;;;;4970621;28;20081;-80
2022/06/25 11:37:29;;;;;;;4.28;1.15;;;22.30;73.90;;;;;;4971873;28;20500;-81
2022/06/25 11:39:55;;;;;;;3.67;0.63;;;22.10;73.00;;;;;;4970774;28;20023;-80
2022/06/25 11:42:21;;;;;;;5.88;1.05;;;22.00;78.80;;;;;;4972338;28;20381;-81
2022/06/25 11:44:55;;;;;;;5.82;0.88;;;21.20;80.40;;;;;;4972413;28;20038;-84
2022/06/25 11:47:23;;;;;;;5.85;0.63;;;21.30;80.30;;;;;;4957619;28;20387;-79
2022/06/25 11:49:50;;;;;;;4.75;1.05;;;21.60;81.40;;;;;;4970744;28;20077;-77
2022/06/25 11:52:18;;;;;;;2.75;0.95;;;21.90;80.60;;;;;;4972909;28;20375;-78
2022/06/25 11:54:45;;;;;;;5.30;1.00;;;21.90;75.40;;;;;;4969151;28;20629;-79
2022/06/25 11:57:17;;;;;;;5.53;1.00;;;21.80;78.50;;;;;;4970916;28;20195;-80
2022/06/25 11:59:43;;;;;;;2.88;0.63;;;22.10;78.40;;;;;;4961787;28;20142;-78
2022/06/25 12:02:11;;;;;;;3.53;0.70;;;22.90;79.30;;;;;;4968015;28;20568;-80
2022/06/25 12:04:57;;;;;;;4.60;0.50;;;23.80;71.60;;;;;;4964627;28;20038;-80
2022/06/25 12:07:29;;;;;;;4.28;1.25;;;23.70;68.10;;;;;;4968166;28;20031;-80
2022/06/25 12:09:57;;;;;;;7.57;1.00;;;23.10;69.30;;;;;;4966074;28;20026;-78
2022/06/25 12:12:24;;;;;;;2.53;0.55;;;22.80;68.80;;;;;;4967381;28;20114;-78
2022/06/25 12:14:51;;;;;;;3.70;0.60;;;22.70;70.50;;;;;;4968613;28;20027;-80
2022/06/25 12:17:18;;;;;;;4.57;0.70;;;22.20;69.80;;;;;;4970287;28;20031;-83
2022/06/25 12:19:51;;;;;;;3.03;0.73;;;22.40;70.60;;;;;;4949689;28;20023;-79
2022/06/25 12:22:25;;;;;;;4.00;0.80;;;23.40;68.20;;;;;;4973123;28;20035;-81
2022/06/25 12:24:57;;;;;;;2.45;0.43;;;24.40;65.50;;;;;;4973676;28;20031;-80
2022/06/25 12:27:23;;;;;;;;;;;25.00;64.10;;;;;;4980235;28;20031;-79
2022/06/25 12:29:52;;;;;;;4.40;0.52;;;25.50;62.60;;;;;;4972949;28;19998;-80
2022/06/25 12:32:19;;;;;;;3.97;0.60;;;24.90;62.90;;;;;;4972555;28;20059;-79
2022/06/25 12:34:50;;;;;;;5.78;0.70;;;24.70;64.70;;;;;;4973485;28;20026;-80
2022/06/25 12:37:33;;;;;;;4.22;0.85;;;25.10;61.50;;;;;;4973399;28;20101;-79
2022/06/25 12:40:00;;;;;;;5.65;0.70;;;25.10;59.70;;;;;;4973543;28;20162;-79
2022/06/25 12:42:29;;;;;;;3.63;0.82;;;24.10;63.10;;;;;;4973587;28;20027;-79
2022/06/25 12:44:56;;;;;;;3.70;0.90;;;24.50;63.90;;;;;;4973013;28;20026;-80
2022/06/25 12:47:22;;;;;;;2.15;0.30;;;24.60;62.90;;;;;;4979433;28;20488;-80
2022/06/25 12:49:52;;;;;;;3.67;0.52;;;25.10;61.00;;;;;;4972649;28;20030;-81
2022/06/25 12:52:22;;;;;;;7.03;1.00;;;24.30;61.20;;;;;;4973070;28;20117;-80
2022/06/25 12:54:52;;;;;;;3.75;0.60;;;25.50;61.40;;;;;;4972872;28;20498;-80
2022/06/25 12:57:25;;;;;;;4.28;1.30;;;25.40;58.50;;;;;;4972844;28;20571;-80
2022/06/25 12:59:52;;;;;;;5.93;0.75;;;25.70;58.00;;;;;;4972710;28;20133;-79
2022/06/25 13:02:18;;;;;;;5.85;0.80;;;27.60;58.80;;;;;;4972301;28;20529;-80
2022/06/25 13:04:44;;;;;;;4.57;0.70;;;28.00;53.30;;;;;;4978521;28;20483;-80
2022/06/25 13:07:14;;;;;;;2.45;0.50;;;27.10;53.80;;;;;;4974482;28;20023;-80